sensor_id;sensor_type;location;lat;lon;timestamp;temperature;humidity
42097;DHT22;27754;45.414;11.084;2024-02-28T00:00:10;11.90;92.00
42097;DHT22;27754;45.414;11.084;2024-02-28T00:02:37;12.00;91.60
42097;DHT22;27754;45.414;11.084;2024-02-28T00:05:05;12.00;91.70
42097;DHT22;27754;45.414;11.084;2024-02-28T00:07:32;12.10;91.30
42097;DHT22;27754;45.414;11.084;2024-02-28T00:09:59;12.10;91.60
42097;DHT22;27754;45.414;11.084;2024-02-28T00:12:26;12.00;92.20
42097;DHT22;27754;45.414;11.084;2024-02-28T00:14:53;11.90;92.20
42097;DHT22;27754;45.414;11.084;2024-02-28T00:17:20;11.90;92.40
42097;DHT22;27754;45.414;11.084;2024-02-28T00:19:47;11.90;92.10
42097;DHT22;27754;45.414;11.084;2024-02-28T00:22:14;11.90;92.60
42097;DHT22;27754;45.414;11.084;2024-02-28T00:24:41;11.90;92.70
42097;DHT22;27754;45.414;11.084;2024-02-28T00:27:08;11.90;92.90
42097;DHT22;27754;45.414;11.084;2024-02-28T00:29:35;11.90;92.70
42097;DHT22;27754;45.414;11.084;2024-02-28T00:32:02;11.80;92.80
42097;DHT22;27754;45.414;11.084;2024-02-28T00:34:29;11.80;93.30
42097;DHT22;27754;45.414;11.084;2024-02-28T00:36:56;11.90;92.50
42097;DHT22;27754;45.414;11.084;2024-02-28T00:39:23;11.90;92.20
42097;DHT22;27754;45.414;11.084;2024-02-28T00:41:50;12.00;92.40
42097;DHT22;27754;45.414;11.084;2024-02-28T00:44:17;12.10;91.90
42097;DHT22;27754;45.414;11.084;2024-02-28T00:46:44;12.10;91.10
42097;DHT22;27754;45.414;11.084;2024-02-28T00:49:11;12.20;91.00
42097;DHT22;27754;45.414;11.084;2024-02-28T00:51:38;12.10;91.50
42097;DHT22;27754;45.414;11.084;2024-02-28T00:54:05;12.10;91.70
42097;DHT22;27754;45.414;11.084;2024-02-28T00:56:32;12.10;91.60
42097;DHT22;27754;45.414;11.084;2024-02-28T00:58:59;12.20;91.20
42097;DHT22;27754;45.414;11.084;2024-02-28T01:01:26;12.20;91.40
42097;DHT22;27754;45.414;11.084;2024-02-28T01:03:53;12.20;90.90
42097;DHT22;27754;45.414;11.084;2024-02-28T01:06:20;12.20;90.90
42097;DHT22;27754;45.414;11.084;2024-02-28T01:08:47;12.20;90.90
42097;DHT22;27754;45.414;11.084;2024-02-28T01:11:15;12.30;91.20
42097;DHT22;27754;45.414;11.084;2024-02-28T01:13:42;12.10;91.80
42097;DHT22;27754;45.414;11.084;2024-02-28T01:16:09;12.10;92.40
42097;DHT22;27754;45.414;11.084;2024-02-28T01:18:36;12.00;92.90
42097;DHT22;27754;45.414;11.084;2024-02-28T01:21:03;11.90;93.20
42097;DHT22;27754;45.414;11.084;2024-02-28T01:23:30;12.00;92.70
42097;DHT22;27754;45.414;11.084;2024-02-28T01:25:58;11.90;93.20
42097;DHT22;27754;45.414;11.084;2024-02-28T01:28:25;11.90;93.40
42097;DHT22;27754;45.414;11.084;2024-02-28T01:30:52;11.90;93.70
42097;DHT22;27754;45.414;11.084;2024-02-28T01:33:19;11.80;94.00
42097;DHT22;27754;45.414;11.084;2024-02-28T01:35:46;11.80;93.80
42097;DHT22;27754;45.414;11.084;2024-02-28T01:38:13;11.90;93.60
42097;DHT22;27754;45.414;11.084;2024-02-28T01:40:47;11.90;93.00
42097;DHT22;27754;45.414;11.084;2024-02-28T01:43:14;12.00;92.80
42097;DHT22;27754;45.414;11.084;2024-02-28T01:45:41;12.00;92.20
42097;DHT22;27754;45.414;11.084;2024-02-28T01:48:09;12.00;92.50
42097;DHT22;27754;45.414;11.084;2024-02-28T01:50:38;12.00;92.50
42097;DHT22;27754;45.414;11.084;2024-02-28T01:53:06;12.00;92.90
42097;DHT22;27754;45.414;11.084;2024-02-28T01:55:36;11.90;92.80
42097;DHT22;27754;45.414;11.084;2024-02-28T01:58:03;11.90;92.90
42097;DHT22;27754;45.414;11.084;2024-02-28T02:00:33;11.90;93.10
42097;DHT22;27754;45.414;11.084;2024-02-28T02:03:03;11.90;92.80
42097;DHT22;27754;45.414;11.084;2024-02-28T02:05:30;11.90;92.70
42097;DHT22;27754;45.414;11.084;2024-02-28T02:07:58;11.90;92.70
42097;DHT22;27754;45.414;11.084;2024-02-28T02:10:26;12.00;92.60
42097;DHT22;27754;45.414;11.084;2024-02-28T02:12:53;12.00;92.30
42097;DHT22;27754;45.414;11.084;2024-02-28T02:15:20;12.00;91.90
42097;DHT22;27754;45.414;11.084;2024-02-28T02:17:47;12.00;91.70
42097;DHT22;27754;45.414;11.084;2024-02-28T02:20:15;12.10;91.50
42097;DHT22;27754;45.414;11.084;2024-02-28T02:22:42;12.10;91.20
42097;DHT22;27754;45.414;11.084;2024-02-28T02:25:09;12.20;90.90
42097;DHT22;27754;45.414;11.084;2024-02-28T02:27:36;12.20;90.80
42097;DHT22;27754;45.414;11.084;2024-02-28T02:30:04;12.20;90.90
42097;DHT22;27754;45.414;11.084;2024-02-28T02:32:31;12.20;90.80
42097;DHT22;27754;45.414;11.084;2024-02-28T02:34:58;12.30;90.60
42097;DHT22;27754;45.414;11.084;2024-02-28T02:37:25;12.30;90.00
42097;DHT22;27754;45.414;11.084;2024-02-28T02:39:53;12.30;90.40
42097;DHT22;27754;45.414;11.084;2024-02-28T02:42:20;12.30;90.60
42097;DHT22;27754;45.414;11.084;2024-02-28T02:44:47;12.20;90.50
42097;DHT22;27754;45.414;11.084;2024-02-28T02:47:14;12.20;90.60
42097;DHT22;27754;45.414;11.084;2024-02-28T02:49:41;12.20;90.70
42097;DHT22;27754;45.414;11.084;2024-02-28T02:52:08;12.30;90.10
42097;DHT22;27754;45.414;11.084;2024-02-28T02:54:35;12.30;89.90
42097;DHT22;27754;45.414;11.084;2024-02-28T02:57:03;12.30;89.80
42097;DHT22;27754;45.414;11.084;2024-02-28T02:59:30;12.40;89.60
42097;DHT22;27754;45.414;11.084;2024-02-28T03:01:57;12.30;89.70
42097;DHT22;27754;45.414;11.084;2024-02-28T03:04:24;12.30;90.10
42097;DHT22;27754;45.414;11.084;2024-02-28T03:06:51;12.30;90.00
42097;DHT22;27754;45.414;11.084;2024-02-28T03:09:18;12.40;90.00
42097;DHT22;27754;45.414;11.084;2024-02-28T03:11:45;12.30;90.00
42097;DHT22;27754;45.414;11.084;2024-02-28T03:14:12;12.40;89.60
42097;DHT22;27754;45.414;11.084;2024-02-28T03:16:43;12.30;89.80
42097;DHT22;27754;45.414;11.084;2024-02-28T03:19:10;12.40;89.60
42097;DHT22;27754;45.414;11.084;2024-02-28T03:21:37;12.40;89.30
42097;DHT22;27754;45.414;11.084;2024-02-28T03:24:04;12.40;89.40
42097;DHT22;27754;45.414;11.084;2024-02-28T03:26:31;12.40;89.50
42097;DHT22;27754;45.414;11.084;2024-02-28T03:28:59;12.40;89.40
42097;DHT22;27754;45.414;11.084;2024-02-28T03:31:26;12.30;89.60
42097;DHT22;27754;45.414;11.084;2024-02-28T03:33:54;12.40;89.40
42097;DHT22;27754;45.414;11.084;2024-02-28T03:36:21;12.40;89.40
42097;DHT22;27754;45.414;11.084;2024-02-28T03:38:48;12.40;89.00
42097;DHT22;27754;45.414;11.084;2024-02-28T03:41:15;12.40;89.20
42097;DHT22;27754;45.414;11.084;2024-02-28T03:43:42;12.40;89.10
42097;DHT22;27754;45.414;11.084;2024-02-28T03:46:09;12.30;89.40
42097;DHT22;27754;45.414;11.084;2024-02-28T03:48:36;12.40;89.40
42097;DHT22;27754;45.414;11.084;2024-02-28T03:51:03;12.30;89.10
42097;DHT22;27754;45.414;11.084;2024-02-28T03:53:30;12.40;88.90
42097;DHT22;27754;45.414;11.084;2024-02-28T03:55:57;12.40;88.70
42097;DHT22;27754;45.414;11.084;2024-02-28T03:58:24;12.40;88.60
42097;DHT22;27754;45.414;11.084;2024-02-28T04:00:51;12.40;88.80
42097;DHT22;27754;45.414;11.084;2024-02-28T04:03:18;12.40;88.80
42097;DHT22;27754;45.414;11.084;2024-02-28T04:05:45;12.40;88.60
42097;DHT22;27754;45.414;11.084;2024-02-28T04:08:12;12.40;88.70
42097;DHT22;27754;45.414;11.084;2024-02-28T04:10:39;12.40;88.60
42097;DHT22;27754;45.414;11.084;2024-02-28T04:13:06;12.50;88.20
42097;DHT22;27754;45.414;11.084;2024-02-28T04:15:33;12.60;88.00
42097;DHT22;27754;45.414;11.084;2024-02-28T04:18:00;12.50;88.20
42097;DHT22;27754;45.414;11.084;2024-02-28T04:20:27;12.40;88.40
42097;DHT22;27754;45.414;11.084;2024-02-28T04:22:54;12.40;88.80
42097;DHT22;27754;45.414;11.084;2024-02-28T04:25:21;12.40;88.60
42097;DHT22;27754;45.414;11.084;2024-02-28T04:27:48;12.40;88.70
42097;DHT22;27754;45.414;11.084;2024-02-28T04:30:16;12.40;88.80
42097;DHT22;27754;45.414;11.084;2024-02-28T04:32:43;12.40;88.50
42097;DHT22;27754;45.414;11.084;2024-02-28T04:35:10;12.40;88.70
42097;DHT22;27754;45.414;11.084;2024-02-28T04:37:37;12.40;88.90
42097;DHT22;27754;45.414;11.084;2024-02-28T04:40:04;12.40;89.10
42097;DHT22;27754;45.414;11.084;2024-02-28T04:42:33;12.30;89.10
42097;DHT22;27754;45.414;11.084;2024-02-28T04:45:00;12.30;89.20
42097;DHT22;27754;45.414;11.084;2024-02-28T04:47:27;12.30;89.40
42097;DHT22;27754;45.414;11.084;2024-02-28T04:50:06;12.30;88.80
42097;DHT22;27754;45.414;11.084;2024-02-28T04:52:33;12.40;88.50
42097;DHT22;27754;45.414;11.084;2024-02-28T04:55:00;12.40;88.20
42097;DHT22;27754;45.414;11.084;2024-02-28T04:57:28;12.40;88.00
42097;DHT22;27754;45.414;11.084;2024-02-28T04:59:55;12.40;88.20
42097;DHT22;27754;45.414;11.084;2024-02-28T05:02:22;12.40;88.30
42097;DHT22;27754;45.414;11.084;2024-02-28T05:04:49;12.40;88.60
42097;DHT22;27754;45.414;11.084;2024-02-28T05:07:17;12.30;88.90
42097;DHT22;27754;45.414;11.084;2024-02-28T05:09:43;12.30;89.20
42097;DHT22;27754;45.414;11.084;2024-02-28T05:12:11;12.30;89.30
42097;DHT22;27754;45.414;11.084;2024-02-28T05:14:40;12.30;89.00
42097;DHT22;27754;45.414;11.084;2024-02-28T05:17:07;12.30;89.10
42097;DHT22;27754;45.414;11.084;2024-02-28T05:19:34;12.30;89.30
42097;DHT22;27754;45.414;11.084;2024-02-28T05:22:01;12.30;89.00
42097;DHT22;27754;45.414;11.084;2024-02-28T05:24:29;12.30;89.00
42097;DHT22;27754;45.414;11.084;2024-02-28T05:26:56;12.30;88.90
42097;DHT22;27754;45.414;11.084;2024-02-28T05:29:22;12.40;88.80
42097;DHT22;27754;45.414;11.084;2024-02-28T05:31:49;12.30;88.80
42097;DHT22;27754;45.414;11.084;2024-02-28T05:34:16;12.30;88.50
42097;DHT22;27754;45.414;11.084;2024-02-28T05:36:43;12.40;88.00
42097;DHT22;27754;45.414;11.084;2024-02-28T05:39:10;12.40;88.20
42097;DHT22;27754;45.414;11.084;2024-02-28T05:41:37;12.40;87.80
42097;DHT22;27754;45.414;11.084;2024-02-28T05:44:04;12.40;87.90
42097;DHT22;27754;45.414;11.084;2024-02-28T05:46:31;12.40;88.00
42097;DHT22;27754;45.414;11.084;2024-02-28T05:48:58;12.40;88.20
42097;DHT22;27754;45.414;11.084;2024-02-28T05:51:26;12.50;87.10
42097;DHT22;27754;45.414;11.084;2024-02-28T05:53:53;12.50;87.40
42097;DHT22;27754;45.414;11.084;2024-02-28T05:56:20;12.40;87.40
42097;DHT22;27754;45.414;11.084;2024-02-28T05:58:48;12.50;86.90
42097;DHT22;27754;45.414;11.084;2024-02-28T06:01:16;12.50;86.10
42097;DHT22;27754;45.414;11.084;2024-02-28T06:03:47;12.60;85.60
42097;DHT22;27754;45.414;11.084;2024-02-28T06:06:15;12.70;85.30
42097;DHT22;27754;45.414;11.084;2024-02-28T06:08:43;12.70;85.20
42097;DHT22;27754;45.414;11.084;2024-02-28T06:11:10;12.70;85.20
42097;DHT22;27754;45.414;11.084;2024-02-28T06:13:39;12.70;85.20
42097;DHT22;27754;45.414;11.084;2024-02-28T06:16:07;12.70;84.90
42097;DHT22;27754;45.414;11.084;2024-02-28T06:18:34;12.70;84.90
42097;DHT22;27754;45.414;11.084;2024-02-28T06:21:01;12.70;85.10
42097;DHT22;27754;45.414;11.084;2024-02-28T06:23:28;12.70;85.00
42097;DHT22;27754;45.414;11.084;2024-02-28T06:25:56;12.80;85.20
42097;DHT22;27754;45.414;11.084;2024-02-28T06:28:24;12.80;84.90
42097;DHT22;27754;45.414;11.084;2024-02-28T06:30:52;12.90;84.70
42097;DHT22;27754;45.414;11.084;2024-02-28T06:33:19;12.90;85.10
42097;DHT22;27754;45.414;11.084;2024-02-28T06:35:46;12.90;84.70
42097;DHT22;27754;45.414;11.084;2024-02-28T06:38:13;12.90;84.60
42097;DHT22;27754;45.414;11.084;2024-02-28T06:40:40;13.00;84.60
42097;DHT22;27754;45.414;11.084;2024-02-28T06:43:08;13.00;84.60
42097;DHT22;27754;45.414;11.084;2024-02-28T06:45:35;13.00;84.70
42097;DHT22;27754;45.414;11.084;2024-02-28T06:48:04;13.00;84.40
42097;DHT22;27754;45.414;11.084;2024-02-28T06:50:32;13.00;84.20
42097;DHT22;27754;45.414;11.084;2024-02-28T06:52:59;13.10;84.20
42097;DHT22;27754;45.414;11.084;2024-02-28T06:55:26;13.10;83.80
42097;DHT22;27754;45.414;11.084;2024-02-28T06:57:53;13.20;83.70
42097;DHT22;27754;45.414;11.084;2024-02-28T07:00:20;13.20;83.60
42097;DHT22;27754;45.414;11.084;2024-02-28T07:02:47;13.20;83.20
42097;DHT22;27754;45.414;11.084;2024-02-28T07:05:14;13.20;83.20
42097;DHT22;27754;45.414;11.084;2024-02-28T07:07:41;13.20;83.10
42097;DHT22;27754;45.414;11.084;2024-02-28T07:10:09;13.30;82.90
42097;DHT22;27754;45.414;11.084;2024-02-28T07:12:36;13.30;82.80
42097;DHT22;27754;45.414;11.084;2024-02-28T07:15:03;13.30;82.90
42097;DHT22;27754;45.414;11.084;2024-02-28T07:17:31;13.40;83.00
42097;DHT22;27754;45.414;11.084;2024-02-28T07:19:58;13.30;83.40
42097;DHT22;27754;45.414;11.084;2024-02-28T07:22:25;13.40;82.80
42097;DHT22;27754;45.414;11.084;2024-02-28T07:24:52;13.40;83.40
42097;DHT22;27754;45.414;11.084;2024-02-28T07:27:22;13.40;83.30
42097;DHT22;27754;45.414;11.084;2024-02-28T07:29:50;13.40;82.60
42097;DHT22;27754;45.414;11.084;2024-02-28T07:32:17;13.40;82.50
42097;DHT22;27754;45.414;11.084;2024-02-28T07:34:44;13.40;82.70
42097;DHT22;27754;45.414;11.084;2024-02-28T07:37:11;13.50;82.20
42097;DHT22;27754;45.414;11.084;2024-02-28T07:39:39;13.50;82.20
42097;DHT22;27754;45.414;11.084;2024-02-28T07:42:06;13.50;82.00
42097;DHT22;27754;45.414;11.084;2024-02-28T07:44:33;13.60;82.00
42097;DHT22;27754;45.414;11.084;2024-02-28T07:47:00;13.60;81.90
42097;DHT22;27754;45.414;11.084;2024-02-28T07:49:27;13.70;81.20
42097;DHT22;27754;45.414;11.084;2024-02-28T07:51:54;13.70;80.90
42097;DHT22;27754;45.414;11.084;2024-02-28T07:54:22;13.70;80.70
42097;DHT22;27754;45.414;11.084;2024-02-28T07:56:50;13.80;81.10
42097;DHT22;27754;45.414;11.084;2024-02-28T07:59:18;13.80;80.50
42097;DHT22;27754;45.414;11.084;2024-02-28T08:01:45;13.80;80.70
42097;DHT22;27754;45.414;11.084;2024-02-28T08:04:13;13.80;80.60
42097;DHT22;27754;45.414;11.084;2024-02-28T08:06:40;13.80;80.40
42097;DHT22;27754;45.414;11.084;2024-02-28T08:09:08;13.90;80.80
42097;DHT22;27754;45.414;11.084;2024-02-28T08:11:39;13.80;80.80
42097;DHT22;27754;45.414;11.084;2024-02-28T08:14:06;13.90;80.50
42097;DHT22;27754;45.414;11.084;2024-02-28T08:16:33;13.90;80.90
42097;DHT22;27754;45.414;11.084;2024-02-28T08:19:00;13.90;81.30
42097;DHT22;27754;45.414;11.084;2024-02-28T08:21:28;13.90;81.20
42097;DHT22;27754;45.414;11.084;2024-02-28T08:23:56;13.90;81.30
42097;DHT22;27754;45.414;11.084;2024-02-28T08:26:24;14.00;81.00
42097;DHT22;27754;45.414;11.084;2024-02-28T08:28:51;14.00;81.10
42097;DHT22;27754;45.414;11.084;2024-02-28T08:31:18;14.10;80.90
42097;DHT22;27754;45.414;11.084;2024-02-28T08:33:45;14.20;81.20
42097;DHT22;27754;45.414;11.084;2024-02-28T08:36:12;14.20;80.10
42097;DHT22;27754;45.414;11.084;2024-02-28T08:38:39;14.30;80.20
42097;DHT22;27754;45.414;11.084;2024-02-28T08:41:07;14.20;80.30
42097;DHT22;27754;45.414;11.084;2024-02-28T08:43:38;14.30;81.00
42097;DHT22;27754;45.414;11.084;2024-02-28T08:46:06;14.30;80.70
42097;DHT22;27754;45.414;11.084;2024-02-28T08:48:33;14.40;81.20
42097;DHT22;27754;45.414;11.084;2024-02-28T08:51:01;14.40;80.40
42097;DHT22;27754;45.414;11.084;2024-02-28T08:53:31;14.50;79.70
42097;DHT22;27754;45.414;11.084;2024-02-28T08:55:58;14.70;80.30
42097;DHT22;27754;45.414;11.084;2024-02-28T08:58:25;14.90;80.30
42097;DHT22;27754;45.414;11.084;2024-02-28T09:00:52;14.80;79.50
42097;DHT22;27754;45.414;11.084;2024-02-28T09:03:19;14.90;80.40
42097;DHT22;27754;45.414;11.084;2024-02-28T09:05:48;14.90;79.30
42097;DHT22;27754;45.414;11.084;2024-02-28T09:08:15;14.90;79.70
42097;DHT22;27754;45.414;11.084;2024-02-28T09:10:42;14.90;79.80
42097;DHT22;27754;45.414;11.084;2024-02-28T09:13:09;14.90;79.20
42097;DHT22;27754;45.414;11.084;2024-02-28T09:15:38;14.90;79.50
42097;DHT22;27754;45.414;11.084;2024-02-28T09:18:06;14.90;79.80
42097;DHT22;27754;45.414;11.084;2024-02-28T09:20:34;14.90;78.50
42097;DHT22;27754;45.414;11.084;2024-02-28T09:23:01;14.90;78.90
42097;DHT22;27754;45.414;11.084;2024-02-28T09:25:28;15.10;78.10
42097;DHT22;27754;45.414;11.084;2024-02-28T09:27:57;15.00;77.60
42097;DHT22;27754;45.414;11.084;2024-02-28T09:30:24;15.20;78.30
42097;DHT22;27754;45.414;11.084;2024-02-28T09:32:58;15.30;77.40
42097;DHT22;27754;45.414;11.084;2024-02-28T09:35:25;15.10;77.60
42097;DHT22;27754;45.414;11.084;2024-02-28T09:37:52;15.10;77.50
42097;DHT22;27754;45.414;11.084;2024-02-28T09:40:19;15.20;78.80
42097;DHT22;27754;45.414;11.084;2024-02-28T09:42:57;15.10;77.70
42097;DHT22;27754;45.414;11.084;2024-02-28T09:45:27;15.00;77.70
42097;DHT22;27754;45.414;11.084;2024-02-28T09:48:00;15.10;78.30
42097;DHT22;27754;45.414;11.084;2024-02-28T09:50:28;15.00;77.40
42097;DHT22;27754;45.414;11.084;2024-02-28T09:52:55;15.00;78.10
42097;DHT22;27754;45.414;11.084;2024-02-28T09:55:35;14.90;77.90
42097;DHT22;27754;45.414;11.084;2024-02-28T09:58:03;14.90;77.60
42097;DHT22;27754;45.414;11.084;2024-02-28T10:00:31;14.90;78.00
42097;DHT22;27754;45.414;11.084;2024-02-28T10:03:00;14.80;78.50
42097;DHT22;27754;45.414;11.084;2024-02-28T10:05:27;14.60;79.60
42097;DHT22;27754;45.414;11.084;2024-02-28T10:07:55;14.40;79.30
42097;DHT22;27754;45.414;11.084;2024-02-28T10:10:22;14.40;80.60
42097;DHT22;27754;45.414;11.084;2024-02-28T10:12:50;14.30;81.20
42097;DHT22;27754;45.414;11.084;2024-02-28T10:15:17;14.00;82.40
42097;DHT22;27754;45.414;11.084;2024-02-28T10:17:44;13.70;83.90
42097;DHT22;27754;45.414;11.084;2024-02-28T10:20:12;13.60;85.50
42097;DHT22;27754;45.414;11.084;2024-02-28T10:22:39;13.40;87.00
42097;DHT22;27754;45.414;11.084;2024-02-28T10:25:07;13.20;87.20
42097;DHT22;27754;45.414;11.084;2024-02-28T10:27:34;13.20;88.90
42097;DHT22;27754;45.414;11.084;2024-02-28T10:30:03;13.20;88.40
42097;DHT22;27754;45.414;11.084;2024-02-28T10:32:34;13.20;88.00
42097;DHT22;27754;45.414;11.084;2024-02-28T10:35:03;13.30;87.90
42097;DHT22;27754;45.414;11.084;2024-02-28T10:37:37;13.40;87.30
42097;DHT22;27754;45.414;11.084;2024-02-28T10:40:06;13.50;87.40
42097;DHT22;27754;45.414;11.084;2024-02-28T10:42:35;13.60;87.60
42097;DHT22;27754;45.414;11.084;2024-02-28T10:45:02;13.80;87.40
42097;DHT22;27754;45.414;11.084;2024-02-28T10:47:47;13.70;86.30
42097;DHT22;27754;45.414;11.084;2024-02-28T10:50:17;13.70;85.80
42097;DHT22;27754;45.414;11.084;2024-02-28T10:52:44;13.70;85.80
42097;DHT22;27754;45.414;11.084;2024-02-28T10:55:23;13.70;85.30
42097;DHT22;27754;45.414;11.084;2024-02-28T10:58:00;13.80;84.90
42097;DHT22;27754;45.414;11.084;2024-02-28T11:00:28;13.70;86.50
42097;DHT22;27754;45.414;11.084;2024-02-28T11:02:57;13.50;87.10
42097;DHT22;27754;45.414;11.084;2024-02-28T11:05:35;13.40;87.50
42097;DHT22;27754;45.414;11.084;2024-02-28T11:08:05;13.40;88.20
42097;DHT22;27754;45.414;11.084;2024-02-28T11:10:32;13.40;88.80
42097;DHT22;27754;45.414;11.084;2024-02-28T11:13:00;13.30;88.00
42097;DHT22;27754;45.414;11.084;2024-02-28T11:15:27;13.40;88.60
42097;DHT22;27754;45.414;11.084;2024-02-28T11:17:54;13.30;88.10
42097;DHT22;27754;45.414;11.084;2024-02-28T11:20:22;13.30;88.30
42097;DHT22;27754;45.414;11.084;2024-02-28T11:22:57;13.30;88.10
42097;DHT22;27754;45.414;11.084;2024-02-28T11:25:24;13.30;87.70
42097;DHT22;27754;45.414;11.084;2024-02-28T11:27:51;13.40;87.40
42097;DHT22;27754;45.414;11.084;2024-02-28T11:30:18;13.40;87.30
42097;DHT22;27754;45.414;11.084;2024-02-28T11:32:46;13.40;87.00
42097;DHT22;27754;45.414;11.084;2024-02-28T11:35:13;13.50;87.10
42097;DHT22;27754;45.414;11.084;2024-02-28T11:37:40;13.50;87.20
42097;DHT22;27754;45.414;11.084;2024-02-28T11:40:08;13.40;87.60
42097;DHT22;27754;45.414;11.084;2024-02-28T11:42:38;13.50;87.50
42097;DHT22;27754;45.414;11.084;2024-02-28T11:45:09;13.50;86.80
42097;DHT22;27754;45.414;11.084;2024-02-28T11:47:36;13.50;86.90
42097;DHT22;27754;45.414;11.084;2024-02-28T11:50:04;13.40;87.00
42097;DHT22;27754;45.414;11.084;2024-02-28T11:52:35;13.50;87.20
42097;DHT22;27754;45.414;11.084;2024-02-28T11:55:02;13.40;87.90
42097;DHT22;27754;45.414;11.084;2024-02-28T11:57:29;13.40;88.30
42097;DHT22;27754;45.414;11.084;2024-02-28T12:00:07;13.30;88.00
42097;DHT22;27754;45.414;11.084;2024-02-28T12:02:36;13.30;88.30
42097;DHT22;27754;45.414;11.084;2024-02-28T12:05:03;13.30;87.50
42097;DHT22;27754;45.414;11.084;2024-02-28T12:07:32;13.40;87.50
42097;DHT22;27754;45.414;11.084;2024-02-28T12:10:00;13.40;87.60
42097;DHT22;27754;45.414;11.084;2024-02-28T12:12:27;13.30;88.00
42097;DHT22;27754;45.414;11.084;2024-02-28T12:14:59;13.30;88.10
42097;DHT22;27754;45.414;11.084;2024-02-28T12:17:32;13.20;88.40
42097;DHT22;27754;45.414;11.084;2024-02-28T12:20:00;13.20;88.50
42097;DHT22;27754;45.414;11.084;2024-02-28T12:22:27;13.10;89.00
42097;DHT22;27754;45.414;11.084;2024-02-28T12:24:55;13.20;89.10
42097;DHT22;27754;45.414;11.084;2024-02-28T12:27:22;13.20;88.50
42097;DHT22;27754;45.414;11.084;2024-02-28T12:29:49;13.30;88.30
42097;DHT22;27754;45.414;11.084;2024-02-28T12:32:16;13.30;89.20
42097;DHT22;27754;45.414;11.084;2024-02-28T12:34:44;13.30;89.70
42097;DHT22;27754;45.414;11.084;2024-02-28T12:37:11;13.30;89.50
42097;DHT22;27754;45.414;11.084;2024-02-28T12:39:38;13.30;89.70
42097;DHT22;27754;45.414;11.084;2024-02-28T12:42:07;13.30;89.40
42097;DHT22;27754;45.414;11.084;2024-02-28T12:44:34;13.30;89.10
42097;DHT22;27754;45.414;11.084;2024-02-28T12:47:01;13.40;89.10
42097;DHT22;27754;45.414;11.084;2024-02-28T12:49:28;13.50;89.20
42097;DHT22;27754;45.414;11.084;2024-02-28T12:51:55;13.60;89.20
42097;DHT22;27754;45.414;11.084;2024-02-28T12:54:23;13.60;89.50
42097;DHT22;27754;45.414;11.084;2024-02-28T12:56:50;13.70;88.50
42097;DHT22;27754;45.414;11.084;2024-02-28T12:59:17;13.80;88.60
42097;DHT22;27754;45.414;11.084;2024-02-28T13:01:44;13.80;89.10
42097;DHT22;27754;45.414;11.084;2024-02-28T13:04:11;13.90;88.90
42097;DHT22;27754;45.414;11.084;2024-02-28T13:06:39;13.90;88.60
42097;DHT22;27754;45.414;11.084;2024-02-28T13:09:06;13.90;88.20
42097;DHT22;27754;45.414;11.084;2024-02-28T13:11:39;13.90;87.70
42097;DHT22;27754;45.414;11.084;2024-02-28T13:14:07;13.90;88.00
42097;DHT22;27754;45.414;11.084;2024-02-28T13:16:35;13.80;87.70
42097;DHT22;27754;45.414;11.084;2024-02-28T13:19:02;13.70;87.00
42097;DHT22;27754;45.414;11.084;2024-02-28T13:21:31;13.70;86.30
42097;DHT22;27754;45.414;11.084;2024-02-28T13:24:01;13.70;86.70
42097;DHT22;27754;45.414;11.084;2024-02-28T13:26:28;13.50;87.10
42097;DHT22;27754;45.414;11.084;2024-02-28T13:28:56;13.40;88.20
42097;DHT22;27754;45.414;11.084;2024-02-28T13:31:23;13.30;88.50
42097;DHT22;27754;45.414;11.084;2024-02-28T13:33:50;13.10;89.30
42097;DHT22;27754;45.414;11.084;2024-02-28T13:36:17;13.00;90.20
42097;DHT22;27754;45.414;11.084;2024-02-28T13:38:45;13.00;90.40
42097;DHT22;27754;45.414;11.084;2024-02-28T13:41:12;12.90;90.60
42097;DHT22;27754;45.414;11.084;2024-02-28T13:43:39;12.80;90.80
42097;DHT22;27754;45.414;11.084;2024-02-28T13:46:06;12.80;90.70
42097;DHT22;27754;45.414;11.084;2024-02-28T13:48:33;12.90;90.50
42097;DHT22;27754;45.414;11.084;2024-02-28T13:51:00;12.90;90.40
42097;DHT22;27754;45.414;11.084;2024-02-28T13:53:28;13.00;89.50
42097;DHT22;27754;45.414;11.084;2024-02-28T13:55:55;13.10;89.70
42097;DHT22;27754;45.414;11.084;2024-02-28T13:58:22;13.00;89.40
42097;DHT22;27754;45.414;11.084;2024-02-28T14:00:49;13.20;89.10
42097;DHT22;27754;45.414;11.084;2024-02-28T14:03:17;13.30;87.20
42097;DHT22;27754;45.414;11.084;2024-02-28T14:05:44;13.30;87.50
42097;DHT22;27754;45.414;11.084;2024-02-28T14:08:11;13.30;87.50
42097;DHT22;27754;45.414;11.084;2024-02-28T14:10:39;13.30;87.30
42097;DHT22;27754;45.414;11.084;2024-02-28T14:13:07;13.30;87.30
42097;DHT22;27754;45.414;11.084;2024-02-28T14:15:34;13.30;87.70
42097;DHT22;27754;45.414;11.084;2024-02-28T14:18:03;13.30;87.70
42097;DHT22;27754;45.414;11.084;2024-02-28T14:20:31;13.30;88.20
42097;DHT22;27754;45.414;11.084;2024-02-28T14:22:57;13.30;87.80
42097;DHT22;27754;45.414;11.084;2024-02-28T14:25:25;13.40;86.40
42097;DHT22;27754;45.414;11.084;2024-02-28T14:27:52;13.50;86.50
42097;DHT22;27754;45.414;11.084;2024-02-28T14:30:20;13.60;86.50
42097;DHT22;27754;45.414;11.084;2024-02-28T14:32:47;13.50;86.00
42097;DHT22;27754;45.414;11.084;2024-02-28T14:35:16;13.70;85.50
42097;DHT22;27754;45.414;11.084;2024-02-28T14:37:43;13.70;85.20
42097;DHT22;27754;45.414;11.084;2024-02-28T14:40:11;13.80;85.30
42097;DHT22;27754;45.414;11.084;2024-02-28T14:42:42;13.90;85.30
42097;DHT22;27754;45.414;11.084;2024-02-28T14:45:10;13.80;84.70
42097;DHT22;27754;45.414;11.084;2024-02-28T14:47:38;13.90;84.80
42097;DHT22;27754;45.414;11.084;2024-02-28T14:50:07;13.90;85.20
42097;DHT22;27754;45.414;11.084;2024-02-28T14:52:38;13.90;84.20
42097;DHT22;27754;45.414;11.084;2024-02-28T14:55:07;13.90;84.40
42097;DHT22;27754;45.414;11.084;2024-02-28T14:57:39;13.90;84.90
42097;DHT22;27754;45.414;11.084;2024-02-28T15:00:10;13.90;84.50
42097;DHT22;27754;45.414;11.084;2024-02-28T15:02:42;13.90;84.50
42097;DHT22;27754;45.414;11.084;2024-02-28T15:05:09;13.90;84.20
42097;DHT22;27754;45.414;11.084;2024-02-28T15:07:37;14.00;83.70
42097;DHT22;27754;45.414;11.084;2024-02-28T15:10:06;14.00;82.70
42097;DHT22;27754;45.414;11.084;2024-02-28T15:12:34;14.10;82.70
42097;DHT22;27754;45.414;11.084;2024-02-28T15:15:02;14.10;82.10
42097;DHT22;27754;45.414;11.084;2024-02-28T15:17:30;14.10;82.10